Arena, North Dakota
Current Conditions -  °F | °C
As of 7:52 PM on Wednesday 17 Dec 2014 (Local Time) from KBIS Reporting Station
Clear Clear  
Wind Chill:   Ceiling: Unl
Heat Index: 15°   Visibility: 10mi
Dew Point: 11°   Wind: 6mph
Humidity: 84%   Direction: 120°ESE
Pressure: 30.2"   Gusts: NA
Location:  47.1519°N, 100.332°W
Report Text: KBIS 180152Z 12005KT 10SM CLR M09/M12 A3020 RMK AO2 SLP262 T10941117
Loading
Personal Weather Stations






























Interactive Weather Map New forecast layout! Learn more

10-Day Weather Forecast

Advertisements
Track Severe Weather on mobile